Saint Louis, Missouri
Current Conditions -  °F | °C
As of 10:53 AM on Saturday 25 Oct 2014 (Local Time) from KCPS Reporting Station
Clear Clear  
Wind Chill: 72°   Ceiling: Unl
Heat Index: 72°   Visibility: 10mi
Dew Point: 62°   Wind: 5mph
Humidity: 71%   Direction: 10°N
Pressure: 30.04"   Gusts: NA
Location:  38.63°N, 90.24°W
Report Text: KCPS 251553Z 01004KT 10SM CLR 22/17 A3004 RMK AO2 SLP170 T02220167 $
Loading
Personal Weather Stations






























Interactive Weather Map
Tropical Storm Tracking
New forecast layout! Learn more

10-Day Weather Forecast

Advertisements
Track Severe Weather on mobile